createdAt,value
2022-11-18T00:01:18.771Z,5.40
2022-11-18T00:03:48.356Z,6.40
2022-11-18T00:06:18.264Z,5.40
2022-11-18T00:08:46.564Z,6.00
2022-11-18T00:11:36.434Z,6.00
2022-11-18T00:14:19.378Z,5.40
2022-11-18T00:16:48.456Z,6.60
2022-11-18T00:19:18.912Z,6.00
2022-11-18T00:21:47.212Z,6.20
2022-11-18T00:24:15.241Z,5.30
2022-11-18T00:26:43.317Z,6.40
2022-11-18T00:29:12.001Z,5.40
2022-11-18T00:31:40.628Z,5.40
2022-11-18T00:34:09.092Z,5.40
2022-11-18T00:36:38.409Z,6.30
2022-11-18T00:39:06.469Z,5.70
2022-11-18T00:41:48.261Z,6.20
2022-11-18T00:44:16.304Z,5.90
2022-11-18T00:46:45.240Z,5.40
2022-11-18T00:49:13.280Z,6.30
2022-11-18T00:51:42.673Z,5.40
2022-11-18T00:54:10.610Z,5.70
2022-11-18T00:56:38.654Z,5.40
2022-11-18T00:59:06.694Z,6.20
2022-11-18T01:01:34.816Z,5.40
2022-11-18T01:04:03.015Z,6.70
2022-11-18T01:06:31.377Z,6.50
2022-11-18T01:09:00.681Z,6.70
2022-11-18T01:11:46.217Z,5.80
2022-11-18T01:14:14.151Z,6.00
2022-11-18T01:16:42.103Z,5.40
2022-11-18T01:19:10.052Z,6.50
2022-11-18T01:21:38.007Z,5.80
2022-11-18T01:24:08.013Z,5.40
2022-11-18T01:26:36.031Z,5.40
2022-11-18T01:29:03.943Z,5.40
2022-11-18T01:31:31.852Z,6.20
2022-11-18T01:33:59.828Z,6.50
2022-11-18T01:36:29.021Z,5.40
2022-11-18T01:38:57.297Z,6.40
2022-11-18T01:41:28.345Z,6.60
2022-11-18T01:43:58.453Z,6.70
2022-11-18T01:46:29.159Z,5.40
2022-11-18T01:49:01.100Z,5.90
2022-11-18T01:51:34.467Z,6.50
2022-11-18T01:54:07.119Z,6.00
2022-11-18T01:56:40.668Z,5.40
2022-11-18T01:59:11.955Z,6.60
2022-11-18T02:01:40.205Z,5.40
2022-11-18T02:04:09.967Z,5.40
2022-11-18T02:06:38.399Z,6.30
2022-11-18T02:09:06.452Z,5.90
2022-11-18T02:11:55.625Z,6.60
2022-11-18T02:14:25.935Z,5.40
2022-11-18T02:17:05.259Z,6.00
2022-11-18T02:20:14.623Z,5.50
2022-11-18T02:23:05.893Z,5.40
2022-11-18T02:25:47.848Z,5.40
2022-11-18T02:28:36.889Z,6.40
2022-11-18T02:31:11.745Z,6.10
2022-11-18T02:33:45.268Z,6.00
2022-11-18T02:36:19.616Z,6.50
2022-11-18T02:38:53.361Z,6.60
2022-11-18T02:41:24.653Z,6.40
2022-11-18T02:43:55.693Z,6.10
2022-11-18T02:46:30.946Z,5.40
2022-11-18T02:48:58.932Z,6.00
2022-11-18T02:51:29.938Z,6.00
2022-11-18T02:54:03.958Z,6.30
2022-11-18T02:56:33.977Z,6.00
2022-11-18T02:59:01.971Z,6.70
2022-11-18T03:01:34.894Z,5.60
2022-11-18T03:04:03.712Z,6.40
2022-11-18T03:06:34.821Z,5.40
2022-11-18T03:09:10.700Z,5.60
2022-11-18T03:11:50.582Z,5.30
2022-11-18T03:14:25.988Z,6.20
2022-11-18T03:17:00.767Z,6.60
2022-11-18T03:19:47.338Z,6.80
2022-11-18T03:22:20.751Z,6.10
2022-11-18T03:24:55.284Z,5.60
2022-11-18T03:27:28.613Z,6.10
2022-11-18T03:30:01.711Z,6.00
2022-11-18T03:32:34.220Z,6.10
2022-11-18T03:35:05.296Z,5.30
2022-11-18T03:37:35.889Z,5.70
2022-11-18T03:40:10.306Z,6.30
2022-11-18T03:42:42.643Z,5.30
2022-11-18T03:45:15.837Z,5.20
2022-11-18T03:47:49.136Z,5.20
2022-11-18T03:50:21.015Z,6.80
2022-11-18T03:52:51.187Z,6.70
2022-11-18T03:55:23.303Z,6.00
2022-11-18T03:57:55.688Z,5.30
2022-11-18T04:00:24.536Z,6.20
2022-11-18T04:02:53.886Z,5.30
2022-11-18T04:05:22.015Z,6.60
2022-11-18T04:07:56.388Z,5.70
2022-11-18T04:10:29.083Z,5.90
2022-11-18T04:13:06.150Z,5.60
2022-11-18T04:15:37.634Z,5.20
2022-11-18T04:18:07.606Z,5.50
2022-11-18T04:20:37.541Z,5.10
2022-11-18T04:23:06.268Z,5.50
2022-11-18T04:25:34.588Z,6.20
2022-11-18T04:28:02.627Z,6.40
2022-11-18T04:30:30.531Z,6.20
2022-11-18T04:32:58.421Z,5.10
2022-11-18T04:35:27.954Z,5.60
2022-11-18T04:37:56.360Z,5.00
2022-11-18T04:40:24.231Z,5.00
2022-11-18T04:42:52.123Z,5.00
2022-11-18T04:45:20.195Z,4.90
2022-11-18T04:47:48.113Z,5.40
2022-11-18T04:50:16.040Z,6.20
2022-11-18T04:52:45.398Z,4.90
2022-11-18T04:55:13.329Z,5.90
2022-11-18T04:57:41.310Z,4.80
2022-11-18T05:00:10.136Z,5.70
2022-11-18T05:02:38.068Z,4.80
2022-11-18T05:05:06.707Z,6.20
2022-11-18T05:07:34.655Z,4.80
2022-11-18T05:10:04.009Z,5.70
2022-11-18T05:12:48.985Z,4.80
2022-11-18T05:15:17.397Z,5.70
2022-11-18T05:17:45.427Z,4.80
2022-11-18T05:20:14.108Z,6.10
2022-11-18T05:22:42.212Z,5.80
2022-11-18T05:25:11.768Z,5.90
2022-11-18T05:27:39.673Z,4.80
2022-11-18T05:30:08.732Z,5.50
2022-11-18T05:32:36.599Z,4.80
2022-11-18T05:35:04.655Z,5.90
2022-11-18T05:37:34.386Z,4.80
2022-11-18T05:40:02.307Z,6.10
2022-11-18T05:42:48.940Z,6.30
2022-11-18T05:45:19.466Z,4.70
2022-11-18T05:48:04.435Z,4.60
2022-11-18T05:50:34.211Z,4.60
2022-11-18T05:53:02.660Z,6.30
2022-11-18T05:55:34.660Z,4.50
2022-11-18T05:58:04.508Z,5.90
2022-11-18T06:00:33.666Z,4.50
2022-11-18T06:03:02.157Z,4.50
2022-11-18T06:05:30.152Z,5.30
2022-11-18T06:07:59.039Z,4.50
2022-11-18T06:10:31.344Z,4.50
2022-11-18T06:13:02.277Z,4.50
2022-11-18T06:15:36.366Z,5.60
2022-11-18T06:18:08.350Z,5.90
2022-11-18T06:20:38.996Z,4.40
2022-11-18T06:23:07.076Z,4.80
2022-11-18T06:25:38.053Z,6.10
2022-11-18T06:28:07.366Z,4.40
2022-11-18T06:30:36.675Z,5.90
2022-11-18T06:33:04.814Z,4.40
2022-11-18T06:35:32.719Z,4.40
2022-11-18T06:38:00.930Z,4.40
2022-11-18T06:40:33.340Z,4.40
2022-11-18T06:43:24.318Z,4.40
2022-11-18T06:46:09.362Z,5.90
2022-11-18T06:48:37.559Z,4.30
2022-11-18T06:51:06.585Z,4.40
2022-11-18T06:53:35.316Z,4.30
2022-11-18T06:56:04.514Z,4.30
2022-11-18T06:58:32.560Z,4.30
2022-11-18T07:01:10.566Z,4.20
2022-11-18T07:03:38.621Z,5.10
2022-11-18T07:06:07.176Z,5.70
2022-11-18T07:08:36.932Z,4.20
2022-11-18T07:11:06.294Z,6.10
2022-11-18T07:13:37.976Z,4.20
2022-11-18T07:16:11.549Z,4.60
2022-11-18T07:18:41.474Z,5.80
2022-11-18T07:21:11.851Z,4.10
2022-11-18T07:23:39.943Z,4.10
2022-11-18T07:26:08.475Z,5.90
2022-11-18T07:28:37.150Z,5.60
2022-11-18T07:31:06.439Z,4.10
2022-11-18T07:33:36.659Z,4.00
2022-11-18T07:36:05.689Z,5.80
2022-11-18T07:38:33.775Z,4.10
2022-11-18T07:41:06.010Z,4.00
2022-11-18T07:43:35.234Z,5.70
2022-11-18T07:46:11.834Z,4.20
2022-11-18T07:48:41.343Z,4.10
2022-11-18T07:51:09.499Z,4.00
2022-11-18T07:53:38.223Z,5.30
2022-11-18T07:56:07.252Z,4.10
2022-11-18T07:58:35.252Z,4.10
2022-11-18T08:01:09.496Z,4.10
2022-11-18T08:03:37.791Z,4.00
2022-11-18T08:06:09.638Z,4.00
2022-11-18T08:08:38.343Z,4.10
2022-11-18T08:11:08.788Z,5.80
2022-11-18T08:13:37.773Z,4.10
2022-11-18T08:16:12.407Z,4.00
2022-11-18T08:18:40.405Z,4.00
2022-11-18T08:21:10.111Z,4.00
2022-11-18T08:23:42.019Z,4.00
2022-11-18T08:26:13.194Z,4.00
2022-11-18T08:28:41.794Z,4.00
2022-11-18T08:31:13.783Z,4.00
2022-11-18T08:33:42.307Z,5.60
2022-11-18T08:36:16.171Z,5.40
2022-11-18T08:38:44.225Z,5.80
2022-11-18T08:41:13.602Z,3.90
2022-11-18T08:43:41.629Z,3.90
2022-11-18T08:46:09.691Z,5.00
2022-11-18T08:48:37.652Z,3.90
2022-11-18T08:51:05.926Z,4.50
2022-11-18T08:53:35.208Z,4.00
2022-11-18T08:56:03.434Z,4.40
2022-11-18T08:58:31.790Z,3.90
2022-11-18T09:01:00.067Z,3.90
2022-11-18T09:03:29.044Z,3.90
2022-11-18T09:06:06.834Z,5.70
2022-11-18T09:08:36.287Z,4.00
2022-11-18T09:11:07.358Z,4.00
2022-11-18T09:16:27.942Z,3.80
2022-11-18T09:18:57.202Z,5.60
2022-11-18T09:21:26.841Z,5.50
2022-11-18T09:23:56.844Z,3.80
2022-11-18T09:26:25.287Z,5.30
2022-11-18T09:28:55.593Z,3.70
2022-11-18T09:31:23.873Z,3.60
2022-11-18T09:33:52.272Z,3.60
2022-11-18T09:36:21.999Z,4.60
2022-11-18T09:38:53.219Z,3.60
2022-11-18T09:41:47.347Z,3.70
2022-11-18T09:44:28.977Z,3.70
2022-11-18T09:47:15.498Z,3.60
2022-11-18T09:49:45.686Z,3.60
2022-11-18T09:52:19.387Z,4.90
2022-11-18T09:54:47.561Z,3.50
2022-11-18T09:57:18.813Z,4.10
2022-11-18T09:59:47.488Z,5.70
2022-11-18T10:02:34.220Z,3.50
2022-11-18T10:05:14.313Z,3.40
2022-11-18T10:07:50.660Z,3.40
2022-11-18T10:10:25.856Z,4.10
2022-11-18T10:13:02.281Z,3.30
2022-11-18T10:15:37.229Z,4.60
2022-11-18T10:18:37.988Z,3.30
2022-11-18T10:21:17.395Z,3.40
2022-11-18T10:23:52.582Z,3.40
2022-11-18T10:26:34.642Z,4.00
2022-11-18T10:29:07.459Z,5.50
2022-11-18T10:31:38.112Z,5.10
2022-11-18T10:34:06.093Z,3.40
2022-11-18T10:36:36.979Z,3.40
2022-11-18T10:39:22.559Z,3.40
2022-11-18T10:41:53.346Z,3.40
2022-11-18T10:44:34.779Z,3.40
2022-11-18T10:47:28.510Z,3.50
2022-11-18T10:49:58.125Z,3.50
2022-11-18T10:52:26.309Z,3.40
2022-11-18T10:55:22.232Z,3.40
2022-11-18T10:57:53.527Z,3.30
2022-11-18T11:00:44.360Z,4.20
2022-11-18T11:03:34.151Z,3.30
2022-11-18T11:06:16.662Z,3.20
2022-11-18T11:08:49.704Z,3.20
2022-11-18T11:11:26.333Z,3.20
2022-11-18T11:13:58.238Z,3.10
2022-11-18T11:16:30.280Z,3.10
2022-11-18T11:19:03.341Z,3.00
2022-11-18T11:21:31.430Z,4.80
2022-11-18T11:23:59.430Z,3.00
2022-11-18T11:29:39.081Z,3.40
2022-11-18T11:32:20.934Z,5.00
2022-11-18T11:34:57.531Z,2.90
2022-11-18T11:37:36.502Z,2.80
2022-11-18T11:40:20.362Z,3.30
2022-11-18T11:42:58.215Z,4.10
2022-11-18T11:45:34.068Z,4.10
2022-11-18T11:48:24.568Z,2.70
2022-11-18T11:51:01.898Z,2.70
2022-11-18T11:53:54.345Z,2.80
2022-11-18T11:56:28.214Z,2.70
2022-11-18T11:59:19.590Z,2.70
2022-11-18T12:02:05.330Z,2.70
2022-11-18T12:04:42.018Z,2.70
2022-11-18T12:07:17.098Z,2.70
2022-11-18T12:10:18.144Z,2.70
2022-11-18T12:12:55.094Z,2.60
2022-11-18T12:15:40.101Z,2.60
2022-11-18T12:18:16.578Z,2.60
2022-11-18T12:20:48.201Z,2.50
2022-11-18T12:23:19.021Z,2.50
2022-11-18T12:26:09.538Z,2.50
2022-11-18T12:28:41.097Z,3.50
2022-11-18T12:31:35.358Z,2.50
2022-11-18T12:34:20.441Z,2.40
2022-11-18T12:36:49.835Z,2.40
2022-11-18T12:39:59.162Z,2.40
2022-11-18T12:43:01.605Z,2.40
2022-11-18T12:45:52.874Z,2.30
2022-11-18T12:48:41.320Z,2.30
2022-11-18T12:51:43.458Z,2.40
2022-11-18T12:54:28.131Z,2.40
2022-11-18T12:56:57.025Z,2.40
2022-11-18T12:59:29.848Z,2.40
2022-11-18T13:02:21.906Z,2.30
2022-11-18T13:05:05.942Z,2.30
2022-11-18T13:07:53.417Z,2.30
2022-11-18T13:10:28.622Z,2.30
2022-11-18T13:12:56.885Z,2.30
2022-11-18T13:15:42.741Z,2.30
2022-11-18T13:18:15.870Z,2.20
2022-11-18T13:20:54.978Z,2.20
2022-11-18T13:23:46.370Z,2.20
2022-11-18T13:26:19.843Z,2.20
2022-11-18T13:29:09.886Z,2.20
2022-11-18T13:31:43.833Z,2.20
2022-11-18T13:34:19.278Z,2.10
2022-11-18T13:36:48.982Z,3.40
2022-11-18T13:39:23.371Z,2.10
2022-11-18T13:42:03.222Z,2.10
2022-11-18T13:44:33.611Z,2.20
2022-11-18T13:47:07.705Z,3.80
2022-11-18T13:49:53.514Z,2.20
2022-11-18T13:52:25.149Z,2.20
2022-11-18T13:54:54.342Z,2.20
2022-11-18T13:57:25.817Z,2.00
2022-11-18T13:59:55.090Z,2.10
2022-11-18T14:02:24.093Z,2.10
2022-11-18T14:04:56.903Z,2.10
2022-11-18T14:07:31.085Z,3.10
2022-11-18T14:10:01.933Z,3.00
2022-11-18T14:12:33.293Z,2.60
2022-11-18T14:15:20.344Z,2.00
2022-11-18T14:17:56.744Z,1.90
2022-11-18T14:20:25.701Z,2.00
2022-11-18T14:22:56.972Z,2.00
2022-11-18T14:25:29.326Z,2.00
2022-11-18T14:28:10.448Z,2.00
2022-11-18T14:30:39.818Z,1.90
2022-11-18T14:33:19.081Z,1.90
2022-11-18T14:35:50.933Z,1.90
2022-11-18T14:38:44.048Z,1.90
2022-11-18T14:41:11.175Z,1.80
2022-11-18T14:43:40.502Z,1.80
2022-11-18T14:46:15.117Z,1.70
2022-11-18T14:48:43.192Z,1.70
2022-11-18T14:51:13.770Z,1.60
2022-11-18T14:53:41.692Z,1.70
2022-11-18T14:56:15.999Z,1.70
2022-11-18T14:58:45.310Z,1.60
2022-11-18T15:01:14.174Z,1.60
2022-11-18T15:03:42.146Z,1.60
2022-11-18T15:06:14.086Z,1.60
2022-11-18T15:08:42.891Z,1.50
2022-11-18T15:11:10.867Z,1.50
2022-11-18T15:13:39.070Z,1.50
2022-11-18T15:16:15.859Z,1.50
2022-11-18T15:18:44.608Z,1.50
2022-11-18T15:21:12.951Z,1.50
2022-11-18T15:23:40.838Z,1.40
2022-11-18T15:26:18.789Z,1.40
2022-11-18T15:28:47.084Z,1.40
2022-11-18T15:31:16.877Z,1.50
2022-11-18T15:33:45.677Z,1.40
2022-11-18T15:36:14.897Z,1.40
2022-11-18T15:38:43.268Z,1.40
2022-11-18T15:41:18.088Z,1.30
2022-11-18T15:43:46.593Z,1.30
2022-11-18T15:46:16.803Z,1.20
2022-11-18T15:48:44.759Z,1.20
2022-11-18T15:51:12.754Z,1.10
2022-11-18T15:53:40.972Z,1.10
2022-11-18T15:56:16.890Z,1.00
2022-11-18T15:58:44.937Z,1.10
2022-11-18T16:01:13.097Z,1.10
2022-11-18T16:03:42.372Z,1.10
2022-11-18T16:06:10.232Z,1.10
2022-11-18T16:08:38.099Z,1.10
2022-11-18T16:11:23.666Z,1.10
2022-11-18T16:13:51.822Z,1.10
2022-11-18T16:16:20.520Z,1.10
2022-11-18T16:18:49.866Z,1.10
2022-11-18T16:21:17.938Z,1.10
2022-11-18T16:23:45.869Z,1.10
2022-11-18T16:26:17.903Z,1.10
2022-11-18T16:28:45.834Z,1.10
2022-11-18T16:31:31.373Z,1.00
2022-11-18T16:34:00.603Z,0.90
2022-11-18T16:36:28.823Z,1.00
2022-11-18T16:38:56.887Z,1.00
2022-11-18T16:41:41.881Z,0.90
2022-11-18T16:44:11.745Z,0.90
2022-11-18T16:46:41.499Z,0.90
2022-11-18T16:49:12.700Z,0.80
2022-11-18T16:51:43.048Z,0.80
2022-11-18T16:54:17.893Z,0.80
2022-11-18T16:56:46.683Z,0.50
2022-11-18T16:59:16.628Z,0.50
2022-11-18T17:01:45.093Z,0.70
2022-11-18T17:04:14.453Z,0.70
2022-11-18T17:06:42.728Z,0.70
2022-11-18T17:09:16.120Z,0.70
2022-11-18T17:11:44.904Z,0.70
2022-11-18T17:14:13.498Z,0.50
2022-11-18T17:16:41.470Z,0.40
2022-11-18T17:19:15.617Z,0.60
2022-11-18T17:21:44.252Z,0.50
2022-11-18T17:24:14.286Z,0.50
2022-11-18T17:26:42.707Z,0.50
2022-11-18T17:29:11.934Z,0.50
2022-11-18T17:31:40.882Z,0.50
2022-11-18T17:34:12.026Z,0.50
2022-11-18T17:36:42.088Z,0.50
2022-11-18T17:39:10.915Z,0.40
2022-11-18T17:41:56.767Z,0.40
2022-11-18T17:44:25.345Z,0.40
2022-11-18T17:46:53.291Z,1.00
2022-11-18T17:49:22.254Z,0.50
2022-11-18T17:51:52.148Z,2.20
2022-11-18T17:54:20.878Z,0.50
2022-11-18T17:56:49.847Z,0.50
2022-11-18T17:59:18.168Z,0.50
2022-11-18T18:01:46.568Z,0.50
2022-11-18T18:04:20.214Z,0.50
2022-11-18T18:06:51.184Z,0.40
2022-11-18T18:09:27.026Z,0.40
2022-11-18T18:11:58.282Z,1.50
2022-11-18T18:14:25.194Z,0.40
2022-11-18T18:16:53.077Z,1.60
2022-11-18T18:19:22.438Z,0.40
2022-11-18T18:21:50.649Z,0.40
2022-11-18T18:24:20.833Z,0.40
2022-11-18T18:26:49.267Z,0.40
2022-11-18T18:29:17.338Z,0.40
2022-11-18T18:31:45.273Z,0.40
2022-11-18T18:34:13.217Z,0.40
2022-11-18T18:36:41.208Z,0.30
2022-11-18T18:39:09.243Z,0.40
2022-11-18T18:41:38.719Z,1.90
2022-11-18T18:44:06.673Z,0.40
2022-11-18T18:46:33.623Z,0.40
2022-11-18T18:49:04.161Z,0.40
2022-11-18T18:51:35.478Z,0.40
2022-11-18T18:54:03.382Z,0.30
2022-11-18T18:56:31.574Z,0.40
2022-11-18T18:59:01.265Z,0.40
2022-11-18T19:01:29.475Z,0.40
2022-11-18T19:03:58.819Z,0.40
2022-11-18T19:06:51.570Z,2.10
2022-11-18T19:09:16.304Z,0.40
2022-11-18T19:12:01.872Z,0.40
2022-11-18T19:14:31.214Z,0.60
2022-11-18T19:17:00.517Z,0.40
2022-11-18T19:19:49.077Z,0.20
2022-11-18T19:22:17.002Z,1.90
2022-11-18T19:24:52.897Z,0.40
2022-11-18T19:27:21.635Z,0.30
2022-11-18T19:29:50.890Z,0.30
2022-11-18T19:32:18.948Z,0.30
2022-11-18T19:34:46.839Z,0.40
2022-11-18T19:37:14.724Z,0.30
2022-11-18T19:39:42.613Z,0.40
2022-11-18T19:42:10.894Z,0.30
2022-11-18T19:44:39.245Z,2.20
2022-11-18T19:47:08.836Z,0.30
2022-11-18T19:49:37.162Z,0.30
2022-11-18T19:52:05.226Z,0.30
2022-11-18T19:54:33.151Z,0.30
2022-11-18T19:57:03.632Z,0.40
2022-11-18T19:59:31.633Z,0.40
2022-11-18T20:01:59.811Z,0.40
2022-11-18T20:04:35.302Z,1.40
2022-11-18T20:07:05.428Z,1.20
2022-11-18T20:09:33.386Z,0.30
2022-11-18T20:12:01.270Z,0.30
2022-11-18T20:14:29.234Z,0.30
2022-11-18T20:16:57.088Z,0.20
2022-11-18T20:19:25.283Z,0.20
2022-11-18T20:21:54.545Z,0.20
2022-11-18T20:24:24.555Z,0.30
2022-11-18T20:26:52.444Z,0.30
2022-11-18T20:29:20.881Z,0.30
2022-11-18T20:31:49.014Z,2.20
2022-11-18T20:34:16.935Z,0.30
2022-11-18T20:36:46.381Z,0.30
2022-11-18T20:39:17.417Z,0.10
2022-11-18T20:42:10.453Z,0.20
2022-11-18T20:44:38.525Z,1.90
2022-11-18T20:47:06.456Z,0.10
2022-11-18T20:49:34.350Z,1.90
2022-11-18T20:52:02.324Z,0.10
2022-11-18T20:54:31.574Z,0.10
2022-11-18T20:56:59.457Z,0.20
2022-11-18T20:59:27.341Z,0.10
2022-11-18T21:01:55.197Z,0.10
2022-11-18T21:04:23.358Z,0.10
2022-11-18T21:06:54.530Z,0.10
2022-11-18T21:09:22.571Z,0.00
2022-11-18T21:11:52.043Z,0.10
2022-11-18T21:14:25.260Z,1.80
2022-11-18T21:16:55.174Z,2.40
2022-11-18T21:19:23.565Z,0.10
2022-11-18T21:21:52.347Z,0.10
2022-11-18T21:24:22.748Z,0.00
2022-11-18T21:26:54.583Z,0.10
2022-11-18T21:29:23.721Z,0.10
2022-11-18T21:31:51.675Z,0.00
2022-11-18T21:34:19.890Z,0.00
2022-11-18T21:36:51.677Z,0.00
2022-11-18T21:39:22.342Z,0.00
2022-11-18T21:41:55.790Z,0.00
2022-11-18T21:44:24.647Z,0.00
2022-11-18T21:46:52.514Z,0.00
2022-11-18T21:49:20.626Z,0.00
2022-11-18T21:51:48.712Z,0.00
2022-11-18T21:54:18.096Z,0.00
2022-11-18T21:56:46.088Z,0.00
2022-11-18T21:59:15.355Z,1.50
2022-11-18T22:01:43.225Z,-0.10
2022-11-18T22:04:31.646Z,-0.10
2022-11-18T22:06:59.618Z,-0.20
2022-11-18T22:09:32.865Z,-0.20
2022-11-18T22:12:04.187Z,-0.20
2022-11-18T22:14:33.567Z,-0.20
2022-11-18T22:17:01.443Z,-0.20
2022-11-18T22:19:29.668Z,-0.20
2022-11-18T22:21:57.604Z,-0.20
2022-11-18T22:24:25.625Z,-0.30
2022-11-18T22:26:53.573Z,-0.30
2022-11-18T22:29:23.318Z,-0.30
2022-11-18T22:31:53.409Z,-0.30
2022-11-18T22:34:21.269Z,-0.30
2022-11-18T22:36:49.161Z,-0.30
2022-11-18T22:39:17.694Z,-0.30
2022-11-18T22:42:03.378Z,-0.30
2022-11-18T22:44:31.305Z,-0.40
2022-11-18T22:47:00.536Z,-0.40
2022-11-18T22:49:28.491Z,-0.40
2022-11-18T22:51:56.394Z,-0.40
2022-11-18T22:54:38.895Z,-0.50
2022-11-18T22:57:07.612Z,1.30
2022-11-18T22:59:35.532Z,-0.50
2022-11-18T23:02:04.815Z,-0.50
2022-11-18T23:04:32.753Z,-0.50
2022-11-18T23:07:00.727Z,-0.60
2022-11-18T23:09:28.710Z,-0.60
2022-11-18T23:12:13.984Z,-0.60
2022-11-18T23:14:41.917Z,-0.60
2022-11-18T23:17:11.150Z,-0.60
2022-11-18T23:19:42.490Z,-0.10
2022-11-18T23:22:10.537Z,-0.60
2022-11-18T23:24:38.425Z,-0.70
2022-11-18T23:27:06.600Z,-0.70
2022-11-18T23:29:34.522Z,-0.70
2022-11-18T23:32:02.482Z,-0.70
2022-11-18T23:34:31.739Z,-0.70
2022-11-18T23:36:59.692Z,0.30
2022-11-18T23:39:27.678Z,-0.70
2022-11-18T23:41:55.560Z,-0.70
2022-11-18T23:44:43.420Z,-0.70
2022-11-18T23:47:11.329Z,-0.70
2022-11-18T23:49:40.576Z,-0.70
2022-11-18T23:52:08.449Z,-0.80
2022-11-18T23:54:36.364Z,-0.80
2022-11-18T23:57:05.483Z,-0.80
2022-11-18T23:59:34.054Z,-0.80
